Terminal Aerodrome Forecast
Issued by NWS Charleston, WV

Current Version | Previous Version | Graphics & Text | Print | Product List | Glossary On
Versions: 1 2 3 4 5 6 7 8 9 10 11 12 13 14 15 16 17 18 19 20 21 22 23 24 25
000
FTUS41 KRLX 211400 AAA
TAFEKN
TAF AMD
KEKN 211456Z 2115/2212 25003KT P6SM SCT025 BKN035
     FM211800 26004KT P6SM VCTS BKN035CB
     FM212100 25005KT 5SM TSRA BR BKN025CB
     FM220200 00000KT 6SM BR VCTS BKN025CB
     FM220500 00000KT 4SM BR BKN025
     FM220800 00000KT 2SM BR BKN015=

USA.gov is the U.S. government's official web portal to all federal, state and local government web resources and services.